sensor_id;sensor_type;location;lat;lon;timestamp;pressure;altitude;pressure_sealevel;temperature;humidity
72465;BME280;60471;52.150;4.508;2022-12-18T00:01:16;102548.47;;;-2.08;85.30
72465;BME280;60471;52.150;4.508;2022-12-18T00:03:44;102534.53;;;-2.13;85.11
72465;BME280;60471;52.150;4.508;2022-12-18T00:06:11;102533.69;;;-2.12;85.31
72465;BME280;60471;52.150;4.508;2022-12-18T00:08:37;102535.78;;;-2.00;85.31
72465;BME280;60471;52.150;4.508;2022-12-18T00:11:06;102540.41;;;-1.90;85.02
72465;BME280;60471;52.150;4.508;2022-12-18T00:13:34;102527.59;;;-1.86;85.06
72465;BME280;60471;52.150;4.508;2022-12-18T00:16:06;102540.00;;;-2.04;85.04
72465;BME280;60471;52.150;4.508;2022-12-18T00:18:35;102534.25;;;-1.95;84.94
72465;BME280;60471;52.150;4.508;2022-12-18T00:21:05;102538.00;;;-2.13;85.33
72465;BME280;60471;52.150;4.508;2022-12-18T00:23:34;102539.72;;;-2.13;85.76
72465;BME280;60471;52.150;4.508;2022-12-18T00:26:04;102540.38;;;-2.19;85.83
72465;BME280;60471;52.150;4.508;2022-12-18T00:28:33;102526.78;;;-2.13;86.16
72465;BME280;60471;52.150;4.508;2022-12-18T00:31:04;102535.47;;;-2.11;86.08
72465;BME280;60471;52.150;4.508;2022-12-18T00:33:33;102527.28;;;-2.25;86.49
72465;BME280;60471;52.150;4.508;2022-12-18T00:36:03;102532.56;;;-2.20;86.36
72465;BME280;60471;52.150;4.508;2022-12-18T00:38:32;102531.41;;;-2.30;86.28
72465;BME280;60471;52.150;4.508;2022-12-18T00:40:58;102533.56;;;-2.17;86.08
72465;BME280;60471;52.150;4.508;2022-12-18T00:43:25;102536.03;;;-2.20;86.10
72465;BME280;60471;52.150;4.508;2022-12-18T00:45:51;102534.28;;;-2.21;86.39
72465;BME280;60471;52.150;4.508;2022-12-18T00:48:18;102529.03;;;-2.24;86.44
72465;BME280;60471;52.150;4.508;2022-12-18T00:50:44;102533.28;;;-2.26;85.99
72465;BME280;60471;52.150;4.508;2022-12-18T00:53:11;102534.13;;;-2.27;86.16
72465;BME280;60471;52.150;4.508;2022-12-18T00:55:41;102541.78;;;-2.28;85.98
72465;BME280;60471;52.150;4.508;2022-12-18T00:58:08;102541.69;;;-2.31;85.86
72465;BME280;60471;52.150;4.508;2022-12-18T01:00:36;102541.41;;;-2.41;85.66
72465;BME280;60471;52.150;4.508;2022-12-18T01:03:04;102549.50;;;-2.57;86.40
72465;BME280;60471;52.150;4.508;2022-12-18T01:05:31;102542.75;;;-2.52;86.21
72465;BME280;60471;52.150;4.508;2022-12-18T01:07:58;102545.91;;;-2.35;86.08
72465;BME280;60471;52.150;4.508;2022-12-18T01:10:25;102555.66;;;-2.26;85.85
72465;BME280;60471;52.150;4.508;2022-12-18T01:12:52;102551.38;;;-2.26;85.53
72465;BME280;60471;52.150;4.508;2022-12-18T01:15:19;102551.03;;;-2.37;85.98
72465;BME280;60471;52.150;4.508;2022-12-18T01:17:46;102555.28;;;-2.39;85.68
72465;BME280;60471;52.150;4.508;2022-12-18T01:20:13;102555.16;;;-2.42;85.54
72465;BME280;60471;52.150;4.508;2022-12-18T01:22:39;102541.66;;;-2.60;86.02
72465;BME280;60471;52.150;4.508;2022-12-18T01:25:06;102551.63;;;-2.71;86.01
72465;BME280;60471;52.150;4.508;2022-12-18T01:27:33;102545.94;;;-2.60;86.01
72465;BME280;60471;52.150;4.508;2022-12-18T01:29:59;102546.38;;;-2.47;85.59
72465;BME280;60471;52.150;4.508;2022-12-18T01:32:28;102545.88;;;-2.37;85.76
72465;BME280;60471;52.150;4.508;2022-12-18T01:34:56;102551.19;;;-2.57;85.82
72465;BME280;60471;52.150;4.508;2022-12-18T01:37:22;102553.63;;;-2.62;86.02
72465;BME280;60471;52.150;4.508;2022-12-18T01:39:49;102549.31;;;-2.62;86.24
72465;BME280;60471;52.150;4.508;2022-12-18T01:42:16;102552.94;;;-2.56;86.08
72465;BME280;60471;52.150;4.508;2022-12-18T01:47:56;102561.03;;;-2.47;85.78
72465;BME280;60471;52.150;4.508;2022-12-18T01:53:10;102577.56;;;-2.68;85.95
72465;BME280;60471;52.150;4.508;2022-12-18T01:55:41;102570.78;;;-2.64;86.31
72465;BME280;60471;52.150;4.508;2022-12-18T01:58:13;102579.34;;;-2.65;86.45
72465;BME280;60471;52.150;4.508;2022-12-18T02:00:40;102578.44;;;-2.67;86.29
72465;BME280;60471;52.150;4.508;2022-12-18T02:03:06;102580.13;;;-2.68;86.11
72465;BME280;60471;52.150;4.508;2022-12-18T02:08:20;102581.47;;;-2.79;86.33
72465;BME280;60471;52.150;4.508;2022-12-18T02:23:14;102576.63;;;-2.94;86.56
72465;BME280;60471;52.150;4.508;2022-12-18T02:26:20;102580.81;;;-2.97;86.36
72465;BME280;60471;52.150;4.508;2022-12-18T02:28:54;102578.91;;;-3.03;86.59
72465;BME280;60471;52.150;4.508;2022-12-18T02:31:31;102569.88;;;-2.90;86.55
72465;BME280;60471;52.150;4.508;2022-12-18T02:34:06;102576.06;;;-2.85;86.10
72465;BME280;60471;52.150;4.508;2022-12-18T02:36:36;102575.47;;;-2.78;85.99
72465;BME280;60471;52.150;4.508;2022-12-18T02:39:09;102566.13;;;-2.74;86.05
72465;BME280;60471;52.150;4.508;2022-12-18T02:41:38;102553.06;;;-2.79;85.81
72465;BME280;60471;52.150;4.508;2022-12-18T02:44:10;102544.00;;;-2.92;85.80
72465;BME280;60471;52.150;4.508;2022-12-18T02:46:44;102546.84;;;-2.84;86.09
72465;BME280;60471;52.150;4.508;2022-12-18T02:49:25;102541.94;;;-2.76;85.60
72465;BME280;60471;52.150;4.508;2022-12-18T02:52:25;102530.63;;;-2.80;85.54
72465;BME280;60471;52.150;4.508;2022-12-18T03:00:51;102534.66;;;-2.88;85.60
72465;BME280;60471;52.150;4.508;2022-12-18T03:03:37;102528.53;;;-2.92;85.62
72465;BME280;60471;52.150;4.508;2022-12-18T03:06:25;102535.47;;;-3.14;85.90
72465;BME280;60471;52.150;4.508;2022-12-18T03:08:59;102532.22;;;-3.09;85.91
72465;BME280;60471;52.150;4.508;2022-12-18T03:11:34;102528.03;;;-3.05;85.29
72465;BME280;60471;52.150;4.508;2022-12-18T03:14:25;102522.66;;;-3.11;85.43
72465;BME280;60471;52.150;4.508;2022-12-18T03:16:59;102524.00;;;-2.97;85.20
72465;BME280;60471;52.150;4.508;2022-12-18T03:19:29;102511.00;;;-2.75;84.79
72465;BME280;60471;52.150;4.508;2022-12-18T03:22:00;102520.81;;;-2.90;84.24
72465;BME280;60471;52.150;4.508;2022-12-18T03:24:31;102522.56;;;-2.89;84.13
72465;BME280;60471;52.150;4.508;2022-12-18T03:27:06;102519.41;;;-3.06;83.88
72465;BME280;60471;52.150;4.508;2022-12-18T03:29:44;102516.66;;;-3.10;83.97
72465;BME280;60471;52.150;4.508;2022-12-18T03:32:43;102522.63;;;-3.13;84.63
72465;BME280;60471;52.150;4.508;2022-12-18T03:35:18;102525.19;;;-3.13;84.52
72465;BME280;60471;52.150;4.508;2022-12-18T03:37:48;102522.47;;;-3.16;83.98
72465;BME280;60471;52.150;4.508;2022-12-18T03:40:15;102515.09;;;-3.05;83.65
72465;BME280;60471;52.150;4.508;2022-12-18T03:42:54;102512.69;;;-3.01;83.87
72465;BME280;60471;52.150;4.508;2022-12-18T03:45:36;102500.56;;;-3.03;84.04
72465;BME280;60471;52.150;4.508;2022-12-18T03:50:56;102499.56;;;-3.07;83.91
72465;BME280;60471;52.150;4.508;2022-12-18T03:53:35;102495.78;;;-2.93;84.17
72465;BME280;60471;52.150;4.508;2022-12-18T03:56:16;102489.25;;;-2.81;83.55
72465;BME280;60471;52.150;4.508;2022-12-18T03:58:45;102492.94;;;-2.73;82.87
72465;BME280;60471;52.150;4.508;2022-12-18T04:01:16;102493.75;;;-3.01;82.81
72465;BME280;60471;52.150;4.508;2022-12-18T04:03:46;102502.06;;;-3.10;83.04
72465;BME280;60471;52.150;4.508;2022-12-18T04:06:16;102511.66;;;-3.06;83.77
72465;BME280;60471;52.150;4.508;2022-12-18T04:08:44;102503.34;;;-3.23;83.37
72465;BME280;60471;52.150;4.508;2022-12-18T04:11:11;102505.75;;;-3.27;83.40
72465;BME280;60471;52.150;4.508;2022-12-18T04:13:38;102508.41;;;-3.26;82.67
72465;BME280;60471;52.150;4.508;2022-12-18T04:16:05;102509.00;;;-3.33;83.49
72465;BME280;60471;52.150;4.508;2022-12-18T04:18:33;102518.88;;;-3.21;83.32
72465;BME280;60471;52.150;4.508;2022-12-18T04:21:00;102515.09;;;-3.31;83.12
72465;BME280;60471;52.150;4.508;2022-12-18T04:23:27;102510.81;;;-3.30;82.89
72465;BME280;60471;52.150;4.508;2022-12-18T04:25:54;102505.59;;;-3.56;84.25
72465;BME280;60471;52.150;4.508;2022-12-18T04:28:20;102512.59;;;-3.52;84.78
72465;BME280;60471;52.150;4.508;2022-12-18T04:30:49;102518.59;;;-3.53;84.64
72465;BME280;60471;52.150;4.508;2022-12-18T04:33:15;102513.59;;;-3.48;84.54
72465;BME280;60471;52.150;4.508;2022-12-18T04:35:41;102515.47;;;-3.44;84.02
72465;BME280;60471;52.150;4.508;2022-12-18T04:38:08;102515.56;;;-3.41;84.35
72465;BME280;60471;52.150;4.508;2022-12-18T04:40:38;102522.97;;;-3.50;83.98
72465;BME280;60471;52.150;4.508;2022-12-18T04:43:04;102521.06;;;-3.56;84.21
72465;BME280;60471;52.150;4.508;2022-12-18T04:45:31;102524.00;;;-3.46;84.38
72465;BME280;60471;52.150;4.508;2022-12-18T04:47:59;102531.59;;;-3.50;84.45
72465;BME280;60471;52.150;4.508;2022-12-18T04:50:26;102524.13;;;-3.66;84.25
72465;BME280;60471;52.150;4.508;2022-12-18T04:52:52;102515.16;;;-3.75;84.62
72465;BME280;60471;52.150;4.508;2022-12-18T04:55:19;102510.53;;;-3.84;85.00
72465;BME280;60471;52.150;4.508;2022-12-18T04:57:45;102512.28;;;-3.83;85.27
72465;BME280;60471;52.150;4.508;2022-12-18T05:00:11;102519.44;;;-3.76;84.85
72465;BME280;60471;52.150;4.508;2022-12-18T05:02:38;102507.03;;;-3.86;85.00
72465;BME280;60471;52.150;4.508;2022-12-18T05:05:05;102508.63;;;-3.90;84.79
72465;BME280;60471;52.150;4.508;2022-12-18T05:07:32;102511.25;;;-3.88;84.66
72465;BME280;60471;52.150;4.508;2022-12-18T05:09:58;102517.41;;;-3.85;84.41
72465;BME280;60471;52.150;4.508;2022-12-18T05:12:24;102514.72;;;-3.88;84.17
72465;BME280;60471;52.150;4.508;2022-12-18T05:14:51;102512.13;;;-3.88;83.89
72465;BME280;60471;52.150;4.508;2022-12-18T05:17:17;102522.19;;;-3.94;84.27
72465;BME280;60471;52.150;4.508;2022-12-18T05:19:43;102513.69;;;-3.91;84.26
72465;BME280;60471;52.150;4.508;2022-12-18T05:22:10;102525.38;;;-4.01;84.30
72465;BME280;60471;52.150;4.508;2022-12-18T05:24:36;102515.06;;;-4.01;84.00
72465;BME280;60471;52.150;4.508;2022-12-18T05:27:02;102512.69;;;-3.95;83.96
72465;BME280;60471;52.150;4.508;2022-12-18T05:29:28;102505.97;;;-3.91;83.74
72465;BME280;60471;52.150;4.508;2022-12-18T05:31:54;102510.06;;;-3.74;83.80
72465;BME280;60471;52.150;4.508;2022-12-18T05:34:21;102505.78;;;-3.73;83.26
72465;BME280;60471;52.150;4.508;2022-12-18T05:36:47;102499.13;;;-3.91;83.38
72465;BME280;60471;52.150;4.508;2022-12-18T05:39:13;102492.13;;;-3.93;83.29
72465;BME280;60471;52.150;4.508;2022-12-18T05:41:39;102489.28;;;-4.01;83.91
72465;BME280;60471;52.150;4.508;2022-12-18T05:44:06;102483.31;;;-4.00;84.04
72465;BME280;60471;52.150;4.508;2022-12-18T05:46:32;102487.41;;;-4.05;84.12
72465;BME280;60471;52.150;4.508;2022-12-18T05:48:59;102483.31;;;-4.00;84.22
72465;BME280;60471;52.150;4.508;2022-12-18T05:51:27;102492.91;;;-3.96;84.04
72465;BME280;60471;52.150;4.508;2022-12-18T05:53:53;102497.81;;;-4.02;83.92
72465;BME280;60471;52.150;4.508;2022-12-18T05:56:21;102491.63;;;-4.07;84.01
72465;BME280;60471;52.150;4.508;2022-12-18T05:58:51;102489.19;;;-4.02;84.04
72465;BME280;60471;52.150;4.508;2022-12-18T06:01:22;102495.59;;;-3.93;83.73
72465;BME280;60471;52.150;4.508;2022-12-18T06:03:52;102490.38;;;-3.94;83.12
72465;BME280;60471;52.150;4.508;2022-12-18T06:06:26;102486.09;;;-3.94;82.98
72465;BME280;60471;52.150;4.508;2022-12-18T06:08:54;102479.47;;;-3.87;82.73
72465;BME280;60471;52.150;4.508;2022-12-18T06:11:23;102480.00;;;-3.96;82.39
72465;BME280;60471;52.150;4.508;2022-12-18T06:13:56;102471.66;;;-3.90;82.32
72465;BME280;60471;52.150;4.508;2022-12-18T06:16:22;102470.16;;;-3.84;82.32
72465;BME280;60471;52.150;4.508;2022-12-18T06:18:48;102468.03;;;-3.71;81.80
72465;BME280;60471;52.150;4.508;2022-12-18T06:21:15;102460.19;;;-3.74;81.58
72465;BME280;60471;52.150;4.508;2022-12-18T06:23:41;102456.63;;;-3.78;81.22
72465;BME280;60471;52.150;4.508;2022-12-18T06:26:09;102465.78;;;-3.86;81.01
72465;BME280;60471;52.150;4.508;2022-12-18T06:28:37;102465.72;;;-3.88;80.85
72465;BME280;60471;52.150;4.508;2022-12-18T06:31:04;102461.44;;;-3.87;81.18
72465;BME280;60471;52.150;4.508;2022-12-18T06:33:31;102456.19;;;-3.90;80.55
72465;BME280;60471;52.150;4.508;2022-12-18T06:36:10;102445.88;;;-3.90;80.86
72465;BME280;60471;52.150;4.508;2022-12-18T06:38:40;102436.53;;;-3.87;80.36
72465;BME280;60471;52.150;4.508;2022-12-18T06:41:12;102436.78;;;-4.03;80.54
72465;BME280;60471;52.150;4.508;2022-12-18T06:43:40;102435.34;;;-3.95;80.64
72465;BME280;60471;52.150;4.508;2022-12-18T06:46:06;102429.31;;;-3.95;80.57
72465;BME280;60471;52.150;4.508;2022-12-18T06:48:33;102426.75;;;-3.95;79.81
72465;BME280;60471;52.150;4.508;2022-12-18T06:50:59;102418.09;;;-3.97;79.54
72465;BME280;60471;52.150;4.508;2022-12-18T06:53:26;102423.88;;;-4.03;79.27
72465;BME280;60471;52.150;4.508;2022-12-18T06:55:58;102421.38;;;-4.01;79.41
72465;BME280;60471;52.150;4.508;2022-12-18T06:58:26;102431.50;;;-4.06;79.48
72465;BME280;60471;52.150;4.508;2022-12-18T07:00:53;102427.13;;;-4.09;79.99
72465;BME280;60471;52.150;4.508;2022-12-18T07:03:19;102414.00;;;-4.15;79.81
72465;BME280;60471;52.150;4.508;2022-12-18T07:05:45;102406.03;;;-3.98;79.03
72465;BME280;60471;52.150;4.508;2022-12-18T07:08:12;102415.84;;;-4.12;79.14
72465;BME280;60471;52.150;4.508;2022-12-18T07:10:42;102408.97;;;-4.12;79.46
72465;BME280;60471;52.150;4.508;2022-12-18T07:13:09;102410.31;;;-4.21;79.34
72465;BME280;60471;52.150;4.508;2022-12-18T07:15:36;102399.88;;;-4.24;79.61
72465;BME280;60471;52.150;4.508;2022-12-18T07:18:02;102396.00;;;-4.13;79.30
72465;BME280;60471;52.150;4.508;2022-12-18T07:20:29;102387.78;;;-4.03;78.32
72465;BME280;60471;52.150;4.508;2022-12-18T07:22:55;102376.00;;;-4.20;78.61
72465;BME280;60471;52.150;4.508;2022-12-18T07:25:21;102368.22;;;-4.22;78.61
72465;BME280;60471;52.150;4.508;2022-12-18T07:27:48;102360.88;;;-4.11;78.70
72465;BME280;60471;52.150;4.508;2022-12-18T07:30:14;102354.22;;;-4.04;78.32
72465;BME280;60471;52.150;4.508;2022-12-18T07:32:40;102345.84;;;-3.99;77.65
72465;BME280;60471;52.150;4.508;2022-12-18T07:35:06;102346.81;;;-4.19;77.66
72465;BME280;60471;52.150;4.508;2022-12-18T07:37:32;102342.41;;;-4.23;78.20
72465;BME280;60471;52.150;4.508;2022-12-18T07:39:59;102341.78;;;-4.16;77.91
72465;BME280;60471;52.150;4.508;2022-12-18T07:42:25;102349.13;;;-4.03;78.75
72465;BME280;60471;52.150;4.508;2022-12-18T07:45:00;102349.25;;;-4.00;77.43
72465;BME280;60471;52.150;4.508;2022-12-18T07:47:31;102350.97;;;-4.00;77.51
72465;BME280;60471;52.150;4.508;2022-12-18T07:50:01;102352.09;;;-3.92;76.37
72465;BME280;60471;52.150;4.508;2022-12-18T07:52:28;102362.19;;;-3.98;76.34
72465;BME280;60471;52.150;4.508;2022-12-18T07:54:54;102360.50;;;-4.22;76.70
72465;BME280;60471;52.150;4.508;2022-12-18T07:57:20;102362.78;;;-4.29;77.33
72465;BME280;60471;52.150;4.508;2022-12-18T07:59:46;102365.25;;;-4.09;77.18
72465;BME280;60471;52.150;4.508;2022-12-18T08:02:13;102357.91;;;-3.98;77.03
72465;BME280;60471;52.150;4.508;2022-12-18T08:04:39;102368.53;;;-4.13;76.88
72465;BME280;60471;52.150;4.508;2022-12-18T08:07:05;102362.97;;;-4.01;76.72
72465;BME280;60471;52.150;4.508;2022-12-18T08:09:31;102361.63;;;-4.14;76.62
72465;BME280;60471;52.150;4.508;2022-12-18T08:11:57;102361.91;;;-4.06;77.15
72465;BME280;60471;52.150;4.508;2022-12-18T08:14:24;102356.84;;;-4.03;76.83
72465;BME280;60471;52.150;4.508;2022-12-18T08:16:50;102336.91;;;-4.09;76.85
72465;BME280;60471;52.150;4.508;2022-12-18T08:19:16;102342.66;;;-3.92;76.85
72465;BME280;60471;52.150;4.508;2022-12-18T08:21:42;102342.94;;;-3.84;76.72
72465;BME280;60471;52.150;4.508;2022-12-18T08:24:09;102326.94;;;-3.74;76.20
72465;BME280;60471;52.150;4.508;2022-12-18T08:26:36;102342.88;;;-3.86;76.21
72465;BME280;60471;52.150;4.508;2022-12-18T08:29:03;102343.63;;;-3.64;75.76
72465;BME280;60471;52.150;4.508;2022-12-18T08:31:30;102345.97;;;-3.70;75.53
72465;BME280;60471;52.150;4.508;2022-12-18T08:33:57;102333.25;;;-3.66;76.11
72465;BME280;60471;52.150;4.508;2022-12-18T08:36:24;102340.72;;;-3.48;74.82
72465;BME280;60471;52.150;4.508;2022-12-18T08:38:50;102347.03;;;-3.65;75.73
72465;BME280;60471;52.150;4.508;2022-12-18T08:41:18;102369.69;;;-3.57;75.01
72465;BME280;60471;52.150;4.508;2022-12-18T08:43:45;102375.44;;;-3.64;74.93
72465;BME280;60471;52.150;4.508;2022-12-18T08:46:38;102388.44;;;-3.61;74.66
72465;BME280;60471;52.150;4.508;2022-12-18T08:49:07;102388.28;;;-3.65;74.81
72465;BME280;60471;52.150;4.508;2022-12-18T08:51:34;102381.59;;;-3.84;75.33
72465;BME280;60471;52.150;4.508;2022-12-18T08:54:02;102372.16;;;-3.84;75.48
72465;BME280;60471;52.150;4.508;2022-12-18T08:56:30;102363.75;;;-3.80;75.93
72465;BME280;60471;52.150;4.508;2022-12-18T08:58:56;102370.56;;;-3.56;75.54
72465;BME280;60471;52.150;4.508;2022-12-18T09:01:23;102385.00;;;-3.61;74.83
72465;BME280;60471;52.150;4.508;2022-12-18T09:03:50;102382.59;;;-3.57;74.73
72465;BME280;60471;52.150;4.508;2022-12-18T09:06:18;102383.00;;;-3.44;74.53
72465;BME280;60471;52.150;4.508;2022-12-18T09:08:46;102364.25;;;-3.39;74.40
72465;BME280;60471;52.150;4.508;2022-12-18T09:11:24;102371.59;;;-3.51;74.64
72465;BME280;60471;52.150;4.508;2022-12-18T09:13:52;102369.19;;;-3.46;74.86
72465;BME280;60471;52.150;4.508;2022-12-18T09:16:20;102369.31;;;-3.42;74.51
72465;BME280;60471;52.150;4.508;2022-12-18T09:18:47;102355.03;;;-3.32;74.57
72465;BME280;60471;52.150;4.508;2022-12-18T09:21:19;102345.44;;;-3.36;74.45
72465;BME280;60471;52.150;4.508;2022-12-18T09:23:50;102324.63;;;-3.41;74.89
72465;BME280;60471;52.150;4.508;2022-12-18T09:26:18;102329.25;;;-3.31;74.66
72465;BME280;60471;52.150;4.508;2022-12-18T09:28:44;102329.97;;;-3.09;73.77
72465;BME280;60471;52.150;4.508;2022-12-18T09:31:14;102333.47;;;-3.07;73.63
72465;BME280;60471;52.150;4.508;2022-12-18T09:33:42;102337.75;;;-3.08;73.06
72465;BME280;60471;52.150;4.508;2022-12-18T09:36:15;102345.41;;;-3.11;73.59
72465;BME280;60471;52.150;4.508;2022-12-18T09:38:42;102337.63;;;-3.12;73.71
72465;BME280;60471;52.150;4.508;2022-12-18T09:44:19;102319.16;;;-3.25;75.05
72465;BME280;60471;52.150;4.508;2022-12-18T09:49:56;102349.03;;;-3.04;73.53
72465;BME280;60471;52.150;4.508;2022-12-18T09:52:32;102339.84;;;-2.96;73.49
72465;BME280;60471;52.150;4.508;2022-12-18T09:55:14;102332.66;;;-3.05;73.44
72465;BME280;60471;52.150;4.508;2022-12-18T09:57:57;102331.94;;;-3.28;74.36
72465;BME280;60471;52.150;4.508;2022-12-18T10:00:29;102316.38;;;-3.04;74.08
72465;BME280;60471;52.150;4.508;2022-12-18T10:03:00;102323.13;;;-3.07;74.01
72465;BME280;60471;52.150;4.508;2022-12-18T10:08:58;102312.50;;;-2.89;74.30
72465;BME280;60471;52.150;4.508;2022-12-18T10:25:15;102306.75;;;-2.51;73.78
72465;BME280;60471;52.150;4.508;2022-12-18T10:27:48;102298.38;;;-2.44;73.40
72465;BME280;60471;52.150;4.508;2022-12-18T10:30:21;102295.78;;;-2.44;73.63
72465;BME280;60471;52.150;4.508;2022-12-18T10:32:48;102285.53;;;-2.41;73.03
72465;BME280;60471;52.150;4.508;2022-12-18T10:35:19;102281.31;;;-2.67;73.96
72465;BME280;60471;52.150;4.508;2022-12-18T10:38:01;102276.50;;;-2.55;73.59
72465;BME280;60471;52.150;4.508;2022-12-18T10:40:47;102277.50;;;-2.50;73.55
72465;BME280;60471;52.150;4.508;2022-12-18T10:43:16;102278.69;;;-2.07;72.49
72465;BME280;60471;52.150;4.508;2022-12-18T10:51:28;102282.97;;;-2.39;73.21
72465;BME280;60471;52.150;4.508;2022-12-18T10:54:01;102286.09;;;-2.21;73.35
72465;BME280;60471;52.150;4.508;2022-12-18T10:56:45;102280.22;;;-2.15;72.83
72465;BME280;60471;52.150;4.508;2022-12-18T10:59:14;102276.75;;;-2.16;72.99
72465;BME280;60471;52.150;4.508;2022-12-18T11:01:54;102268.44;;;-2.04;72.96
72465;BME280;60471;52.150;4.508;2022-12-18T11:04:30;102271.44;;;-2.20;73.07
72465;BME280;60471;52.150;4.508;2022-12-18T11:07:01;102276.97;;;-2.07;72.74
72465;BME280;60471;52.150;4.508;2022-12-18T11:09:37;102273.19;;;-1.88;72.77
72465;BME280;60471;52.150;4.508;2022-12-18T11:12:17;102261.97;;;-1.54;71.92
72465;BME280;60471;52.150;4.508;2022-12-18T11:14:48;102264.06;;;-1.39;71.95
72465;BME280;60471;52.150;4.508;2022-12-18T11:17:30;102269.72;;;-1.19;71.45
72465;BME280;60471;52.150;4.508;2022-12-18T11:20:00;102267.78;;;-0.90;69.93
72465;BME280;60471;52.150;4.508;2022-12-18T11:22:31;102250.03;;;-1.11;69.49
72465;BME280;60471;52.150;4.508;2022-12-18T11:27:29;102236.66;;;-1.65;71.55
72465;BME280;60471;52.150;4.508;2022-12-18T11:33:15;102228.84;;;-1.68;72.17
72465;BME280;60471;52.150;4.508;2022-12-18T11:35:50;102221.53;;;-1.50;71.59
72465;BME280;60471;52.150;4.508;2022-12-18T11:38:45;102229.16;;;-1.89;72.81
72465;BME280;60471;52.150;4.508;2022-12-18T11:41:35;102219.09;;;-1.79;72.81
72465;BME280;60471;52.150;4.508;2022-12-18T11:44:31;102202.31;;;-1.60;72.84
72465;BME280;60471;52.150;4.508;2022-12-18T11:49:49;102194.53;;;-1.60;73.02
72465;BME280;60471;52.150;4.508;2022-12-18T11:52:49;102185.50;;;-1.77;72.73
72465;BME280;60471;52.150;4.508;2022-12-18T11:55:18;102176.13;;;-1.73;73.34
72465;BME280;60471;52.150;4.508;2022-12-18T11:58:00;102170.66;;;-1.48;72.82
72465;BME280;60471;52.150;4.508;2022-12-18T12:00:42;102164.69;;;-1.44;72.38
72465;BME280;60471;52.150;4.508;2022-12-18T12:03:24;102156.78;;;-1.52;73.22
72465;BME280;60471;52.150;4.508;2022-12-18T12:09:20;102152.94;;;-1.67;73.73
72465;BME280;60471;52.150;4.508;2022-12-18T12:15:01;102155.31;;;-1.40;72.59
72465;BME280;60471;52.150;4.508;2022-12-18T12:17:47;102155.34;;;-1.39;72.79
72465;BME280;60471;52.150;4.508;2022-12-18T12:21:09;102156.84;;;-1.49;72.76
72465;BME280;60471;52.150;4.508;2022-12-18T12:27:18;102156.78;;;-1.52;73.47
72465;BME280;60471;52.150;4.508;2022-12-18T12:30:18;102138.44;;;-1.61;73.79
72465;BME280;60471;52.150;4.508;2022-12-18T12:38:56;102128.44;;;-1.46;73.44
72465;BME280;60471;52.150;4.508;2022-12-18T12:41:30;102124.50;;;-1.28;73.05
72465;BME280;60471;52.150;4.508;2022-12-18T12:44:23;102113.28;;;-1.29;73.48
72465;BME280;60471;52.150;4.508;2022-12-18T12:46:57;102116.81;;;-1.24;72.99
72465;BME280;60471;52.150;4.508;2022-12-18T12:49:31;102117.22;;;-1.44;74.00
72465;BME280;60471;52.150;4.508;2022-12-18T12:52:06;102110.75;;;-1.26;73.81
72465;BME280;60471;52.150;4.508;2022-12-18T12:54:38;102111.06;;;-1.09;73.32
72465;BME280;60471;52.150;4.508;2022-12-18T12:57:24;102107.47;;;-1.17;73.31
72465;BME280;60471;52.150;4.508;2022-12-18T13:00:10;102099.91;;;-1.08;73.08
72465;BME280;60471;52.150;4.508;2022-12-18T13:05:49;102091.97;;;-1.15;73.22
72465;BME280;60471;52.150;4.508;2022-12-18T13:08:25;102093.78;;;-1.10;73.40
72465;BME280;60471;52.150;4.508;2022-12-18T13:10:55;102093.00;;;-1.07;73.26
72465;BME280;60471;52.150;4.508;2022-12-18T13:13:55;102087.00;;;-1.05;73.56
72465;BME280;60471;52.150;4.508;2022-12-18T13:16:24;102073.38;;;-0.95;73.56
72465;BME280;60471;52.150;4.508;2022-12-18T13:18:53;102072.81;;;-0.77;72.96
72465;BME280;60471;52.150;4.508;2022-12-18T13:21:27;102074.28;;;-0.93;73.34
72465;BME280;60471;52.150;4.508;2022-12-18T13:23:56;102071.53;;;-1.00;73.59
72465;BME280;60471;52.150;4.508;2022-12-18T13:26:41;102060.44;;;-0.93;73.09
72465;BME280;60471;52.150;4.508;2022-12-18T13:29:07;102047.53;;;-0.90;73.21
72465;BME280;60471;52.150;4.508;2022-12-18T13:34:23;102041.06;;;-1.13;74.03
72465;BME280;60471;52.150;4.508;2022-12-18T13:36:52;102031.47;;;-1.19;74.13
72465;BME280;60471;52.150;4.508;2022-12-18T13:41:51;102019.66;;;-1.05;73.92
72465;BME280;60471;52.150;4.508;2022-12-18T13:44:39;102019.69;;;-1.03;74.24
72465;BME280;60471;52.150;4.508;2022-12-18T13:47:28;102014.44;;;-1.06;74.23
72465;BME280;60471;52.150;4.508;2022-12-18T13:49:59;102005.88;;;-1.02;73.96
72465;BME280;60471;52.150;4.508;2022-12-18T13:52:35;102018.59;;;-1.16;74.79
72465;BME280;60471;52.150;4.508;2022-12-18T13:55:07;102008.06;;;-1.24;74.97
72465;BME280;60471;52.150;4.508;2022-12-18T13:57:42;102005.00;;;-1.03;74.23
72465;BME280;60471;52.150;4.508;2022-12-18T14:02:54;102000.88;;;-0.93;73.77
72465;BME280;60471;52.150;4.508;2022-12-18T14:05:34;101990.56;;;-0.89;73.39
72465;BME280;60471;52.150;4.508;2022-12-18T14:08:10;101988.59;;;-1.03;74.33
72465;BME280;60471;52.150;4.508;2022-12-18T14:10:44;101995.72;;;-0.92;73.90
72465;BME280;60471;52.150;4.508;2022-12-18T14:13:31;101976.84;;;-0.84;73.99
72465;BME280;60471;52.150;4.508;2022-12-18T14:16:03;101971.66;;;-0.84;73.68
72465;BME280;60471;52.150;4.508;2022-12-18T14:18:50;101969.81;;;-0.90;73.89
72465;BME280;60471;52.150;4.508;2022-12-18T14:21:27;101972.69;;;-0.75;73.47
72465;BME280;60471;52.150;4.508;2022-12-18T14:24:12;101957.16;;;-0.75;73.19
72465;BME280;60471;52.150;4.508;2022-12-18T14:26:41;101963.97;;;-0.78;73.66
72465;BME280;60471;52.150;4.508;2022-12-18T14:29:25;101964.69;;;-0.87;73.54
72465;BME280;60471;52.150;4.508;2022-12-18T14:32:12;101959.41;;;-0.93;73.93
72465;BME280;60471;52.150;4.508;2022-12-18T14:34:53;101965.63;;;-0.85;74.38
72465;BME280;60471;52.150;4.508;2022-12-18T14:37:22;101964.78;;;-0.82;74.12
72465;BME280;60471;52.150;4.508;2022-12-18T14:39:58;101952.66;;;-0.85;73.96
72465;BME280;60471;52.150;4.508;2022-12-18T14:42:38;101947.63;;;-0.76;73.98
72465;BME280;60471;52.150;4.508;2022-12-18T14:45:43;101945.91;;;-0.75;74.19
72465;BME280;60471;52.150;4.508;2022-12-18T14:50:57;101930.19;;;-0.86;74.16